Time;durP1;ratioP1;P1;durP2;ratioP2;P2;SDS_P1;SDS_P2;PMS_P1;PMS_P2;Temp;Humidity;BMP_temperature;BMP_pressure;BME280_temperature;BME280_humidity;BME280_pressure;Samples;Min_cycle;Max_cycle;Signal;HPM_P1;HPM_P2
2021/03/05 00:01:01;;;;;;;5.57;3.67;;;5.10;83.60;;;;;;4996902;28;20204;-83
2021/03/05 00:03:26;;;;;;;6.07;3.53;;;5.00;83.50;;;;;;5001280;28;20221;-83
2021/03/05 00:05:53;;;;;;;4.97;3.47;;;5.10;85.20;;;;;;5007704;28;20281;-83
2021/03/05 00:08:19;;;;;;;6.07;3.60;;;5.30;84.30;;;;;;5004677;28;20212;-84
2021/03/05 00:10:45;;;;;;;5.30;3.87;;;5.10;84.40;;;;;;5018576;28;20564;-83
2021/03/05 00:13:12;;;;;;;8.80;4.23;;;5.10;84.50;;;;;;5022523;28;20208;-83
2021/03/05 00:15:43;;;;;;;6.57;4.03;;;5.10;85.20;;;;;;5010419;28;20189;-83
2021/03/05 00:18:09;;;;;;;6.90;4.03;;;5.20;85.10;;;;;;5020983;28;20193;-83
2021/03/05 00:20:38;;;;;;;7.47;3.97;;;5.10;84.70;;;;;;5001942;28;20583;-83
2021/03/05 00:23:04;;;;;;;5.23;3.97;;;5.10;85.20;;;;;;5018860;28;20224;-83
2021/03/05 00:25:30;;;;;;;5.10;3.90;;;5.10;85.90;;;;;;5002612;28;20220;-83
2021/03/05 00:27:56;;;;;;;5.20;3.63;;;5.10;86.20;;;;;;5020006;28;20193;-83
2021/03/05 00:30:23;;;;;;;5.30;3.87;;;5.20;85.60;;;;;;5001531;28;20691;-83
2021/03/05 00:32:49;;;;;;;6.97;4.23;;;5.20;86.30;;;;;;5005484;28;20196;-83
2021/03/05 00:35:16;;;;;;;5.60;3.27;;;5.10;86.90;;;;;;4999576;28;20276;-85
2021/03/05 00:37:42;;;;;;;7.97;3.73;;;5.10;87.40;;;;;;5001511;28;20208;-83
2021/03/05 00:40:10;;;;;;;5.50;3.50;;;5.20;87.10;;;;;;5004544;28;20223;-83
2021/03/05 00:42:36;;;;;;;6.07;3.43;;;5.20;86.30;;;;;;5004130;28;20193;-84
2021/03/05 00:45:02;;;;;;;5.33;3.40;;;5.30;86.40;;;;;;5017881;28;20193;-83
2021/03/05 00:47:28;;;;;;;4.47;3.53;;;5.20;85.30;;;;;;5022358;28;20184;-83
2021/03/05 00:49:54;;;;;;;4.77;3.33;;;5.20;82.70;;;;;;5000308;28;20183;-83
2021/03/05 00:52:20;;;;;;;2.77;2.47;;;5.30;81.70;;;;;;5003883;28;20180;-85
2021/03/05 00:54:45;;;;;;;7.13;3.17;;;5.30;82.30;;;;;;5022653;28;20207;-83
2021/03/05 00:57:11;;;;;;;4.87;4.23;;;;;;;;;;4999733;28;20212;-83
2021/03/05 00:59:37;;;;;;;5.27;3.37;;;5.30;80.90;;;;;;4999793;28;20208;-84
2021/03/05 01:02:02;;;;;;;5.03;3.67;;;5.20;81.60;;;;;;5013017;28;20240;-84
2021/03/05 01:04:28;;;;;;;5.00;3.23;;;5.10;81.80;;;;;;5011436;28;20307;-84
2021/03/05 01:06:54;;;;;;;6.90;3.90;;;5.10;82.00;;;;;;5000311;28;20189;-85
2021/03/05 01:09:19;;;;;;;6.67;3.60;;;5.10;81.40;;;;;;5001357;28;20192;-84
2021/03/05 01:11:45;;;;;;;5.10;3.80;;;5.10;81.40;;;;;;5000849;28;20196;-84
2021/03/05 01:14:11;;;;;;;5.27;3.17;;;5.10;82.00;;;;;;4998537;28;20638;-85
2021/03/05 01:16:37;;;;;;;5.63;3.33;;;5.00;82.50;;;;;;4992788;28;20181;-85
2021/03/05 01:19:06;;;;;;;5.57;3.93;;;5.00;81.60;;;;;;5014365;28;20303;-84
2021/03/05 01:21:32;;;;;;;7.63;4.03;;;5.20;82.40;;;;;;4997618;28;20199;-84
2021/03/05 01:23:58;;;;;;;4.57;3.20;;;5.20;82.70;;;;;;4995941;28;20215;-85
2021/03/05 01:26:24;;;;;;;6.33;3.77;;;5.20;82.40;;;;;;5002259;28;20271;-84
2021/03/05 01:28:50;;;;;;;6.17;3.50;;;5.30;82.50;;;;;;5011911;28;20200;-85
2021/03/05 01:31:16;;;;;;;7.67;4.30;;;5.00;82.00;;;;;;4998563;28;20272;-85
2021/03/05 01:33:42;;;;;;;4.93;3.43;;;5.00;80.90;;;;;;4999114;28;20235;-85
2021/03/05 01:36:09;;;;;;;6.10;3.90;;;5.00;79.60;;;;;;5000772;28;20191;-85
2021/03/05 01:38:35;;;;;;;4.77;2.70;;;5.10;80.10;;;;;;5000333;28;20189;-84
2021/03/05 01:41:03;;;;;;;5.80;3.90;;;5.10;78.40;;;;;;4998200;28;20197;-84
2021/03/05 01:43:31;;;;;;;5.73;4.03;;;5.10;80.10;;;;;;5002318;28;20208;-82
2021/03/05 01:45:57;;;;;;;7.80;3.70;;;5.70;80.70;;;;;;5001715;28;20451;-82
2021/03/05 01:48:24;;;;;;;8.30;4.27;;;5.10;80.10;;;;;;5016502;28;20283;-82
2021/03/05 01:51:16;;;;;;;7.53;4.10;;;5.20;79.00;;;;;;5001799;28;20196;-82
2021/03/05 01:53:43;;;;;;;5.83;3.43;;;5.20;78.00;;;;;;5016354;28;20231;-82
2021/03/05 01:56:09;;;;;;;6.37;3.83;;;5.20;79.00;;;;;;4995392;28;20553;-84
2021/03/05 01:58:36;;;;;;;5.43;3.30;;;5.10;78.30;;;;;;5008956;28;20220;-82
2021/03/05 02:01:04;;;;;;;4.77;3.80;;;5.10;80.00;;;;;;5007264;28;20189;-82
2021/03/05 02:03:31;;;;;;;7.87;3.73;;;5.00;80.60;;;;;;4995661;28;20236;-84
2021/03/05 02:05:57;;;;;;;5.53;3.40;;;5.00;81.10;;;;;;5000974;28;20258;-82
2021/03/05 02:08:23;;;;;;;6.30;3.53;;;5.00;82.10;;;;;;5014613;28;20189;-82
2021/03/05 02:10:49;;;;;;;5.43;3.20;;;5.00;82.40;;;;;;4991635;28;20553;-83
2021/03/05 02:13:15;;;;;;;4.57;3.17;;;4.90;82.70;;;;;;5002067;28;20204;-82
2021/03/05 02:15:42;;;;;;;7.17;3.80;;;4.90;83.60;;;;;;4997480;28;20200;-84
2021/03/05 02:18:35;;;;;;;7.23;3.73;;;4.90;84.00;;;;;;5015877;28;20620;-83
2021/03/05 02:21:23;;;;;;;5.10;3.77;;;4.90;84.70;;;;;;5018215;28;20204;-83
2021/03/05 02:24:26;;;;;;;4.53;3.70;;;4.80;85.00;;;;;;5018587;28;20193;-83
2021/03/05 02:27:10;;;;;;;2.87;2.50;;;4.90;85.00;;;;;;4998665;28;20188;-83
2021/03/05 02:29:57;;;;;;;5.73;3.63;;;4.80;85.00;;;;;;5010634;28;20185;-83
2021/03/05 02:32:51;;;;;;;5.57;3.87;;;5.00;85.30;;;;;;5004549;28;20188;-83
2021/03/05 02:35:17;;;;;;;5.53;3.37;;;5.00;85.60;;;;;;4993075;28;20203;-83
2021/03/05 02:37:45;;;;;;;4.27;3.07;;;5.00;85.50;;;;;;5004596;28;20214;-83
2021/03/05 02:40:27;;;;;;;5.83;3.20;;;4.90;84.40;;;;;;5021175;28;20246;-83
2021/03/05 02:43:00;;;;;;;6.07;3.90;;;4.80;85.70;;;;;;5016975;28;20185;-83
2021/03/05 02:45:29;;;;;;;8.57;4.43;;;4.80;86.00;;;;;;4999480;28;20193;-83
2021/03/05 02:48:01;;;;;;;7.57;3.73;;;4.80;86.20;;;;;;4998230;28;20196;-82
2021/03/05 02:50:30;;;;;;;8.50;4.37;;;4.90;86.20;;;;;;5005379;28;20244;-83
2021/03/05 02:53:01;;;;;;;8.57;4.23;;;4.80;86.80;;;;;;5004212;28;20185;-83
2021/03/05 02:55:28;;;;;;;7.00;4.27;;;4.90;87.40;;;;;;5019484;28;20622;-83
2021/03/05 02:57:57;;;;;;;9.10;4.13;;;4.80;87.40;;;;;;5001447;28;20593;-83
2021/03/05 03:00:24;;;;;;;7.10;4.20;;;4.90;88.20;;;;;;5015297;28;20213;-85
2021/03/05 03:02:53;;;;;;;7.57;4.60;;;4.90;85.90;;;;;;5015342;28;20640;-83
2021/03/05 03:05:19;;;;;;;6.70;4.40;;;4.90;85.10;;;;;;5001067;28;20204;-83
2021/03/05 03:07:45;;;;;;;7.07;3.20;;;4.90;83.00;;;;;;5009007;28;20254;-83
2021/03/05 03:10:12;;;;;;;9.83;4.27;;;4.90;83.40;;;;;;4999755;28;20199;-83
2021/03/05 03:12:39;;;;;;;7.23;4.97;;;4.80;85.60;;;;;;5006665;28;20197;-83
2021/03/05 03:15:12;;;;;;;7.73;3.83;;;4.60;84.60;;;;;;5000494;28;20212;-83
2021/03/05 03:17:41;;;;;;;3.93;3.23;;;4.60;84.00;;;;;;5017361;28;20192;-82
2021/03/05 03:20:09;;;;;;;7.27;4.00;;;4.60;84.80;;;;;;5005437;28;20588;-82
2021/03/05 03:22:34;;;;;;;5.83;2.90;;;4.50;86.30;;;;;;4999846;28;20197;-83
2021/03/05 03:25:01;;;;;;;5.17;3.80;;;4.40;87.60;;;;;;5000408;28;20208;-83
2021/03/05 03:27:27;;;;;;;5.83;4.03;;;4.20;89.40;;;;;;4998192;28;20189;-83
2021/03/05 03:29:53;;;;;;;5.10;2.77;;;4.30;89.00;;;;;;5001100;28;20204;-82
2021/03/05 03:32:18;;;;;;;6.73;3.77;;;4.30;89.50;;;;;;5020341;28;20247;-83
2021/03/05 03:34:44;;;;;;;6.03;4.20;;;4.30;89.90;;;;;;5016419;28;20284;-83
2021/03/05 03:37:11;;;;;;;5.73;4.17;;;4.40;90.10;;;;;;4996445;28;20193;-83
2021/03/05 03:39:38;;;;;;;5.97;3.93;;;4.40;90.50;;;;;;5005508;28;20228;-83
2021/03/05 03:42:04;;;;;;;6.40;4.17;;;4.50;90.30;;;;;;5018722;28;20239;-83
2021/03/05 03:44:30;;;;;;;5.37;3.23;;;4.50;90.30;;;;;;5002247;28;20739;-83
2021/03/05 03:46:58;;;;;;;6.17;4.07;;;4.70;87.60;;;;;;5001919;28;20188;-83
2021/03/05 03:49:42;;;;;;;7.70;4.33;;;4.70;87.80;;;;;;5019417;28;20192;-83
2021/03/05 03:52:17;;;;;;;9.30;4.40;;;4.70;86.40;;;;;;5017998;28;20193;-83
2021/03/05 03:54:43;;;;;;;5.37;3.70;;;4.70;84.90;;;;;;5005617;28;20207;-83
2021/03/05 03:57:12;;;;;;;4.03;3.30;;;4.70;87.10;;;;;;4998700;28;20188;-83
2021/03/05 03:59:39;;;;;;;8.50;4.10;;;4.70;86.60;;;;;;5000068;28;20212;-83
2021/03/05 04:02:06;;;;;;;6.00;4.10;;;4.80;85.00;;;;;;4998546;28;20232;-83
2021/03/05 04:04:34;;;;;;;6.37;4.17;;;4.90;84.60;;;;;;5005112;28;20215;-83
2021/03/05 04:07:01;;;;;;;10.80;4.87;;;4.90;85.00;;;;;;5003793;28;20181;-82
2021/03/05 04:09:29;;;;;;;5.30;4.17;;;4.90;85.40;;;;;;5019523;28;20201;-83
2021/03/05 04:11:55;;;;;;;8.03;4.90;;;4.90;85.00;;;;;;5003399;28;20212;-83
2021/03/05 04:14:23;;;;;;;8.23;4.20;;;4.90;84.10;;;;;;4996279;28;20193;-83
2021/03/05 04:16:51;;;;;;;6.57;4.03;;;4.90;83.40;;;;;;4996597;28;20283;-83
2021/03/05 04:19:16;;;;;;;5.27;3.37;;;4.70;83.40;;;;;;5003077;28;20200;-83
2021/03/05 04:21:42;;;;;;;5.73;3.57;;;4.80;83.10;;;;;;5006446;28;20458;-83
2021/03/05 04:24:08;;;;;;;7.07;3.10;;;4.80;80.60;;;;;;5014237;28;20185;-83
2021/03/05 04:26:34;;;;;;;5.60;3.10;;;4.80;81.70;;;;;;5016801;28;20608;-83
2021/03/05 04:29:00;;;;;;;4.10;3.50;;;4.80;82.40;;;;;;5003238;28;20181;-83
2021/03/05 04:31:25;;;;;;;5.67;3.80;;;4.70;84.40;;;;;;5016316;28;20208;-83
2021/03/05 04:33:51;;;;;;;6.50;3.73;;;4.70;84.90;;;;;;5001092;28;20213;-83
2021/03/05 04:36:17;;;;;;;5.77;3.10;;;4.60;86.60;;;;;;5002982;28;20252;-83
2021/03/05 04:38:42;;;;;;;6.13;4.63;;;4.60;86.40;;;;;;5001336;28;20188;-83
2021/03/05 04:41:08;;;;;;;5.37;3.17;;;4.60;82.00;;;;;;4998216;28;20212;-83
2021/03/05 04:43:34;;;;;;;6.10;3.83;;;4.80;79.00;;;;;;5013517;28;20181;-83
2021/03/05 04:45:59;;;;;;;5.50;3.30;;;4.80;77.70;;;;;;5017589;28;20192;-83
2021/03/05 04:48:25;;;;;;;4.87;3.30;;;4.70;76.40;;;;;;5003438;28;20547;-83
2021/03/05 04:50:51;;;;;;;6.33;4.20;;;;;;;;;;4999336;28;20195;-82
2021/03/05 04:53:16;;;;;;;4.80;3.50;;;4.70;77.70;;;;;;5017589;28;20242;-83
2021/03/05 04:55:42;;;;;;;4.90;2.87;;;4.80;78.60;;;;;;4998530;28;20265;-83
2021/03/05 04:58:08;;;;;;;5.07;3.23;;;4.70;77.40;;;;;;4995646;28;20226;-82
2021/03/05 05:00:34;;;;;;;4.33;3.27;;;4.70;75.40;;;;;;4996746;28;20200;-83
2021/03/05 05:02:59;;;;;;;4.83;3.50;;;4.60;75.70;;;;;;5002149;28;20583;-83
2021/03/05 05:05:25;;;;;;;6.60;3.40;;;4.60;75.70;;;;;;4998977;28;20196;-83
2021/03/05 05:07:51;;;;;;;3.33;2.63;;;4.40;75.70;;;;;;4996436;28;20182;-83
2021/03/05 05:10:17;;;;;;;4.93;3.17;;;4.50;76.60;;;;;;5016264;28;20220;-83
2021/03/05 05:12:43;;;;;;;4.80;3.07;;;4.40;74.50;;;;;;5001534;28;20617;-83
2021/03/05 05:15:09;;;;;;;6.27;3.77;;;4.30;76.10;;;;;;5001607;28;20242;-84
2021/03/05 05:17:34;;;;;;;10.40;4.10;;;4.40;76.50;;;;;;4995629;28;20207;-83
2021/03/05 05:20:00;;;;;;;7.63;3.07;;;4.40;76.50;;;;;;4999494;28;20323;-83
2021/03/05 05:22:26;;;;;;;6.40;3.90;;;4.50;75.40;;;;;;5002418;28;20192;-83
2021/03/05 05:24:52;;;;;;;8.00;3.10;;;4.50;76.60;;;;;;4998242;28;20193;-83
2021/03/05 05:27:17;;;;;;;4.97;3.33;;;4.50;74.90;;;;;;5001474;28;20193;-83
2021/03/05 05:29:43;;;;;;;8.07;3.97;;;4.50;75.10;;;;;;5002990;28;20200;-83
2021/03/05 05:32:09;;;;;;;5.83;3.90;;;4.50;76.50;;;;;;5000244;28;20204;-83
2021/03/05 05:34:34;;;;;;;5.53;2.83;;;3.50;74.30;;;;;;5015315;28;20255;-83
2021/03/05 05:37:00;;;;;;;5.23;3.27;;;4.40;74.30;;;;;;5002903;28;20202;-85
2021/03/05 05:39:25;;;;;;;9.67;3.43;;;4.50;75.00;;;;;;4994422;28;20637;-85
2021/03/05 05:41:53;;;;;;;5.10;3.67;;;4.50;74.50;;;;;;4995675;28;20216;-85
2021/03/05 05:44:19;;;;;;;6.70;3.80;;;4.50;74.20;;;;;;4997893;28;20687;-85
2021/03/05 05:46:46;;;;;;;5.80;3.57;;;4.50;74.60;;;;;;4993935;28;20196;-85
2021/03/05 05:49:12;;;;;;;3.13;2.83;;;4.50;74.80;;;;;;4999801;28;20208;-85
2021/03/05 05:51:39;;;;;;;5.13;3.33;;;4.40;73.70;;;;;;5002022;28;20196;-86
2021/03/05 05:54:19;;;;;;;5.63;2.80;;;4.40;74.90;;;;;;5002638;28;20203;-85
2021/03/05 05:56:45;;;;;;;8.30;3.40;;;4.50;75.60;;;;;;5010239;28;20280;-86
2021/03/05 05:59:11;;;;;;;5.70;3.33;;;4.50;75.20;;;;;;5018700;28;20672;-86
2021/03/05 06:01:36;;;;;;;7.70;4.67;;;4.60;75.10;;;;;;5000322;28;20197;-86
2021/03/05 06:04:03;;;;;;;3.90;3.20;;;4.50;73.80;;;;;;4996974;28;20216;-86
2021/03/05 06:06:30;;;;;;;5.73;3.33;;;4.40;73.50;;;;;;5000293;28;20176;-86
2021/03/05 06:09:01;;;;;;;4.30;3.23;;;4.50;75.00;;;;;;4999455;28;20559;-86
2021/03/05 06:11:37;;;;;;;4.20;3.43;;;4.50;74.90;;;;;;4994466;28;20264;-86
2021/03/05 06:14:08;;;;;;;4.33;3.23;;;4.40;74.30;;;;;;5001218;28;20197;-86
2021/03/05 06:16:34;;;;;;;3.57;2.93;;;4.50;74.90;;;;;;5009806;28;20196;-86
2021/03/05 06:19:15;;;;;;;4.87;3.20;;;4.50;74.20;;;;;;4997779;28;20668;-86
2021/03/05 06:21:41;;;;;;;5.10;3.37;;;4.50;74.80;;;;;;5003755;28;20196;-86
2021/03/05 06:24:09;;;;;;;8.67;4.07;;;4.50;74.40;;;;;;4997775;28;20350;-87
2021/03/05 06:26:55;;;;;;;6.83;3.90;;;4.50;74.00;;;;;;5000212;28;20219;-88
2021/03/05 06:29:25;;;;;;;8.90;4.30;;;4.60;74.70;;;;;;4997105;28;20203;-88
2021/03/05 06:31:54;;;;;;;7.17;3.90;;;4.60;74.30;;;;;;4998549;28;20193;-88
2021/03/05 06:34:21;;;;;;;10.27;3.40;;;4.60;73.80;;;;;;4996234;28;20192;-86
2021/03/05 06:37:06;;;;;;;8.63;4.80;;;4.60;73.70;;;;;;4989493;28;20201;-86
2021/03/05 06:39:34;;;;;;;3.13;2.73;;;4.60;74.20;;;;;;4994106;28;20342;-88
2021/03/05 06:42:00;;;;;;;7.17;3.67;;;4.60;74.70;;;;;;4994340;28;20187;-88
2021/03/05 06:44:26;;;;;;;4.93;3.43;;;4.70;74.70;;;;;;5006776;28;20216;-86
2021/03/05 06:46:51;;;;;;;5.77;3.50;;;4.70;74.90;;;;;;5004926;28;20303;-85
2021/03/05 06:49:17;;;;;;;5.70;3.57;;;4.60;73.40;;;;;;5014012;28;20340;-86
2021/03/05 06:51:52;;;;;;;3.37;2.47;;;4.60;73.30;;;;;;5016219;28;20201;-86
2021/03/05 06:54:18;;;;;;;5.27;3.70;;;4.60;73.80;;;;;;5012669;28;20295;-85
2021/03/05 06:56:51;;;;;;;3.73;2.53;;;4.60;74.00;;;;;;4996942;28;20228;-85
2021/03/05 06:59:18;;;;;;;5.07;3.10;;;4.60;74.80;;;;;;5004816;28;20767;-85
2021/03/05 07:01:57;;;;;;;7.17;3.23;;;4.60;74.30;;;;;;5032151;28;20207;-86
2021/03/05 07:04:28;;;;;;;5.67;4.03;;;4.70;74.40;;;;;;5034985;28;20221;-84
2021/03/05 07:07:03;;;;;;;7.90;3.80;;;4.70;73.80;;;;;;5018024;28;20192;-85
2021/03/05 07:09:37;;;;;;;3.63;2.87;;;4.70;74.60;;;;;;5018885;28;20259;-85
2021/03/05 07:12:09;;;;;;;11.17;3.87;;;4.70;74.90;;;;;;5021646;28;20232;-85
2021/03/05 07:14:37;;;;;;;5.50;3.33;;;4.60;74.90;;;;;;5036236;28;20219;-85
2021/03/05 07:17:04;;;;;;;3.70;3.03;;;4.80;75.90;;;;;;5029132;28;20206;-88
2021/03/05 07:19:32;;;;;;;5.97;3.50;;;4.60;74.70;;;;;;5034187;28;20255;-86
2021/03/05 07:21:58;;;;;;;2.50;2.30;;;4.50;75.60;;;;;;5017721;28;20207;-80
2021/03/05 07:24:27;;;;;;;4.27;2.70;;;4.60;75.70;;;;;;5018466;28;20299;-80
2021/03/05 07:27:00;;;;;;;6.97;3.80;;;4.60;75.50;;;;;;5015033;28;20224;-79
2021/03/05 07:29:26;;;;;;;7.70;4.93;;;4.60;76.00;;;;;;5034744;28;20697;-80
2021/03/05 07:32:03;;;;;;;4.73;2.23;;;4.70;75.00;;;;;;5037521;28;20204;-80
2021/03/05 07:34:36;;;;;;;6.77;2.87;;;4.60;75.40;;;;;;5010604;28;20191;-80
2021/03/05 07:37:06;;;;;;;3.47;2.33;;;4.60;76.40;;;;;;5026629;28;20207;-79
2021/03/05 07:39:37;;;;;;;5.87;3.43;;;4.60;76.10;;;;;;5017409;28;20235;-80
2021/03/05 07:42:07;;;;;;;3.60;2.50;;;4.50;76.60;;;;;;5022922;28;20203;-82
2021/03/05 07:44:32;;;;;;;2.03;1.57;;;4.50;77.40;;;;;;5006390;28;20228;-82
2021/03/05 07:47:00;;;;;;;6.43;3.37;;;4.40;77.50;;;;;;5020361;28;20328;-80
2021/03/05 07:49:31;;;;;;;2.57;2.13;;;4.30;79.50;;;;;;5035950;28;20200;-82
2021/03/05 07:51:58;;;;;;;3.30;2.00;;;4.40;78.60;;;;;;5036020;28;20188;-82
2021/03/05 07:54:53;;;;;;;4.50;3.27;;;4.30;78.90;;;;;;5015989;28;20244;-83
2021/03/05 07:57:19;;;;;;;4.07;2.60;;;4.40;79.30;;;;;;5017880;28;20298;-81
2021/03/05 07:59:46;;;;;;;9.73;3.43;;;4.40;79.50;;;;;;5036368;28;20223;-83
2021/03/05 08:02:13;;;;;;;7.37;3.30;;;4.30;78.70;;;;;;5018920;28;20228;-81
2021/03/05 08:04:52;;;;;;;6.53;3.80;;;4.40;78.00;;;;;;5038591;28;20239;-83
2021/03/05 08:07:24;;;;;;;4.00;2.90;;;4.50;78.10;;;;;;5019713;28;20193;-82
2021/03/05 08:09:50;;;;;;;6.87;4.27;;;4.50;76.60;;;;;;5020080;28;20267;-83
2021/03/05 08:15:13;;;;;;;7.07;3.30;;;4.50;76.60;;;;;;5024261;28;20196;-83
2021/03/05 08:17:41;;;;;;;3.93;3.53;;;4.60;73.20;;;;;;5019256;28;20196;-82
2021/03/05 08:20:20;;;;;;;6.03;4.53;;;4.60;73.70;;;;;;5028331;28;20238;-83
2021/03/05 08:23:16;;;;;;;5.37;3.63;;;4.60;72.60;;;;;;5010928;28;20247;-83
2021/03/05 08:25:49;;;;;;;7.80;4.17;;;4.60;72.50;;;;;;4995222;28;20714;-83
2021/03/05 08:28:46;;;;;;;3.00;2.10;;;4.70;73.30;;;;;;5007220;28;20200;-82
2021/03/05 08:31:37;;;;;;;9.13;4.27;;;4.80;70.60;;;;;;5003435;28;20208;-81
2021/03/05 08:34:25;;;;;;;4.23;3.70;;;4.80;71.30;;;;;;5028730;28;20203;-80
2021/03/05 08:36:51;;;;;;;4.73;2.80;;;4.80;70.60;;;;;;5011807;28;20259;-81
2021/03/05 08:39:25;;;;;;;7.20;4.37;;;4.80;69.20;;;;;;5028407;28;20727;-82
2021/03/05 08:42:40;;;;;;;5.20;3.77;;;5.30;70.40;;;;;;5030927;28;20272;-82
2021/03/05 08:45:29;;;;;;;4.77;3.13;;;4.90;70.20;;;;;;5015028;28;20618;-82
2021/03/05 08:48:00;;;;;;;5.93;3.67;;;5.00;68.70;;;;;;4993185;28;20287;-81
2021/03/05 08:50:32;;;;;;;2.67;2.40;;;5.00;68.70;;;;;;5015104;28;20486;-82
2021/03/05 08:53:08;;;;;;;5.33;3.33;;;5.00;66.30;;;;;;5011955;28;20189;-82
2021/03/05 08:55:40;;;;;;;3.97;2.43;;;4.10;67.60;;;;;;5019512;28;20283;-82
2021/03/05 08:58:06;;;;;;;2.87;2.47;;;2.80;64.40;;;;;;5018640;28;20204;-83
2021/03/05 09:00:34;;;;;;;5.77;4.00;;;5.00;66.50;;;;;;5021848;28;20757;-82
2021/03/05 09:03:04;;;;;;;7.97;3.73;;;5.10;65.40;;;;;;5035945;28;20216;-82
2021/03/05 09:05:34;;;;;;;2.80;2.10;;;5.10;66.30;;;;;;5035123;28;20218;-82
2021/03/05 09:08:01;;;;;;;5.83;4.00;;;5.00;64.90;;;;;;5024316;28;20222;-82
2021/03/05 09:10:48;;;;;;;6.27;3.07;;;5.00;65.70;;;;;;5022351;28;20733;-82
2021/03/05 09:13:17;;;;;;;2.57;1.93;;;4.90;62.80;;;;;;5036977;28;20198;-82
2021/03/05 09:15:48;;;;;;;1.77;1.67;;;5.10;63.90;;;;;;5021609;28;20271;-81
2021/03/05 09:18:15;;;;;;;6.17;3.40;;;5.10;64.50;;;;;;5033240;28;20191;-82
2021/03/05 09:20:44;;;;;;;3.13;2.50;;;5.20;64.10;;;;;;5034455;28;20287;-81
2021/03/05 09:23:37;;;;;;;3.40;2.73;;;5.40;62.70;;;;;;5032033;28;20223;-81
2021/03/05 09:26:09;;;;;;;7.17;3.63;;;5.40;62.10;;;;;;5019212;28;20220;-81
2021/03/05 09:28:43;;;;;;;3.10;2.20;;;5.40;62.90;;;;;;5021653;28;20649;-83
2021/03/05 09:31:13;;;;;;;4.90;3.30;;;5.60;61.50;;;;;;5019666;28;20203;-81
2021/03/05 09:33:41;;;;;;;3.93;2.83;;;5.60;60.60;;;;;;5025148;28;20234;-81
2021/03/05 09:36:12;;;;;;;2.63;1.83;;;5.60;60.50;;;;;;5023542;28;20194;-81
2021/03/05 09:38:39;;;;;;;6.30;3.43;;;5.70;58.50;;;;;;5042479;28;20661;-81
2021/03/05 09:41:09;;;;;;;4.00;2.60;;;5.80;59.20;;;;;;5026155;28;20294;-81
2021/03/05 09:43:34;;;;;;;4.43;3.30;;;5.90;59.70;;;;;;5038461;28;20215;-82
2021/03/05 09:46:14;;;;;;;4.87;2.50;;;6.00;59.50;;;;;;5041478;28;20197;-82
2021/03/05 09:48:39;;;;;;;4.57;3.40;;;5.90;58.50;;;;;;5004058;28;21074;-81
2021/03/05 09:51:09;;;;;;;3.13;2.90;;;5.90;59.30;;;;;;5021640;28;20236;-81
2021/03/05 09:53:39;;;;;;;4.80;2.97;;;6.00;57.80;;;;;;5028222;28;20245;-81
2021/03/05 09:56:08;;;;;;;5.93;3.20;;;5.90;58.10;;;;;;5038569;28;20231;-81
2021/03/05 09:58:35;;;;;;;5.60;3.63;;;6.10;56.50;;;;;;5025446;28;20212;-81
2021/03/05 10:01:03;;;;;;;0.80;0.80;;;6.10;57.20;;;;;;5040534;28;20231;-81
2021/03/05 10:03:29;;;;;;;4.07;2.70;;;5.80;55.60;;;;;;5025164;28;20259;-80
2021/03/05 10:05:55;;;;;;;2.40;2.10;;;5.70;56.60;;;;;;5018772;28;20227;-81
2021/03/05 10:08:31;;;;;;;2.33;1.10;;;5.80;54.10;;;;;;5023105;28;20224;-81
2021/03/05 10:11:08;;;;;;;5.63;2.77;;;6.00;53.70;;;;;;5025169;28;20695;-82
2021/03/05 10:13:46;;;;;;;6.53;3.00;;;6.00;53.70;;;;;;5040596;28;20664;-83
2021/03/05 10:16:16;;;;;;;2.47;1.40;;;6.20;53.80;;;;;;5038301;28;20189;-82
2021/03/05 10:18:43;;;;;;;4.43;2.20;;;6.10;54.10;;;;;;5037654;28;20611;-82
2021/03/05 10:21:11;;;;;;;3.17;2.80;;;6.10;54.60;;;;;;5028192;28;20282;-83
2021/03/05 10:23:38;;;;;;;2.97;2.27;;;6.10;55.10;;;;;;5026066;28;20223;-82
2021/03/05 10:26:21;;;;;;;4.93;3.17;;;6.00;52.90;;;;;;5039076;28;20224;-83
2021/03/05 10:28:57;;;;;;;2.10;1.90;;;6.00;54.20;;;;;;5040181;28;20588;-83
2021/03/05 10:31:44;;;;;;;2.90;2.03;;;6.00;53.70;;;;;;5040475;28;20281;-83
2021/03/05 10:34:22;;;;;;;3.17;2.37;;;6.10;53.10;;;;;;5018561;28;20214;-83
2021/03/05 10:36:49;;;;;;;1.90;1.80;;;6.20;52.70;;;;;;5037696;28;20255;-83
2021/03/05 10:39:15;;;;;;;3.50;2.70;;;6.10;49.70;;;;;;5042201;28;20564;-83
2021/03/05 10:41:52;;;;;;;4.80;2.90;;;6.10;51.30;;;;;;5022358;28;20300;-83
2021/03/05 10:44:18;;;;;;;4.43;2.50;;;6.20;50.80;;;;;;5037486;28;20234;-83
2021/03/05 10:46:44;;;;;;;2.70;2.07;;;6.20;52.10;;;;;;5022480;28;20188;-82
2021/03/05 10:49:09;;;;;;;2.37;2.17;;;6.20;51.40;;;;;;5033674;28;20240;-82
2021/03/05 10:51:35;;;;;;;4.10;2.57;;;6.20;49.60;;;;;;5032688;28;20220;-82
2021/03/05 10:54:00;;;;;;;4.40;3.00;;;6.20;50.70;;;;;;5035327;28;20227;-83
2021/03/05 10:56:26;;;;;;;3.93;2.60;;;6.40;48.70;;;;;;5022932;28;20196;-82
2021/03/05 10:58:53;;;;;;;2.70;1.90;;;6.50;49.90;;;;;;5020668;28;20226;-82
2021/03/05 11:01:19;;;;;;;2.40;2.20;;;6.70;49.90;;;;;;5019083;28;20526;-83
2021/03/05 11:03:45;;;;;;;5.77;3.73;;;6.60;49.30;;;;;;5037718;28;20239;-84
2021/03/05 11:06:10;;;;;;;4.97;3.57;;;6.50;49.40;;;;;;5022179;28;20228;-84
2021/03/05 11:08:36;;;;;;;6.03;2.77;;;6.60;50.00;;;;;;5036523;28;20232;-83
2021/03/05 11:11:02;;;;;;;3.70;2.80;;;6.90;49.80;;;;;;5017512;28;20377;-83
2021/03/05 11:13:28;;;;;;;4.63;3.17;;;6.90;49.50;;;;;;5022217;28;20192;-84
2021/03/05 11:15:53;;;;;;;3.27;2.67;;;6.90;49.40;;;;;;5034942;28;20282;-84
2021/03/05 11:18:19;;;;;;;3.67;2.70;;;6.70;48.50;;;;;;5018606;28;20196;-85
2021/03/05 11:20:45;;;;;;;3.57;2.80;;;6.70;48.70;;;;;;5017939;28;20319;-82
2021/03/05 11:23:10;;;;;;;3.53;2.53;;;6.80;48.40;;;;;;5038295;28;20247;-84
2021/03/05 11:25:36;;;;;;;2.77;2.00;;;6.90;48.60;;;;;;5025119;28;20192;-84
2021/03/05 11:28:04;;;;;;;2.70;2.17;;;6.80;47.80;;;;;;5021193;28;20200;-83
2021/03/05 11:30:30;;;;;;;4.07;2.53;;;6.90;48.70;;;;;;5025391;28;20172;-84
2021/03/05 11:32:56;;;;;;;5.60;3.37;;;6.80;48.10;;;;;;5019460;28;20184;-81
2021/03/05 11:35:21;;;;;;;6.43;3.57;;;7.00;48.20;;;;;;5021290;28;20203;-82
2021/03/05 11:37:47;;;;;;;2.80;2.03;;;7.30;46.50;;;;;;5024134;28;20224;-83
2021/03/05 11:40:14;;;;;;;4.60;2.33;;;7.50;47.10;;;;;;5022530;28;20219;-83
2021/03/05 11:42:39;;;;;;;4.43;3.20;;;7.40;46.40;;;;;;5003545;28;20334;-83
2021/03/05 11:45:06;;;;;;;3.50;2.87;;;7.20;48.10;;;;;;5013329;28;20216;-84
2021/03/05 11:47:33;;;;;;;3.13;2.60;;;7.10;48.50;;;;;;4998462;28;20192;-83
2021/03/05 11:49:59;;;;;;;5.50;3.27;;;6.90;48.50;;;;;;5000588;28;20217;-81
2021/03/05 11:52:25;;;;;;;3.57;2.67;;;7.20;47.20;;;;;;5008229;28;20282;-84
2021/03/05 11:54:50;;;;;;;4.10;2.57;;;9.30;49.50;;;;;;5001167;28;20517;-82
2021/03/05 11:57:16;;;;;;;3.47;2.80;;;8.70;44.80;;;;;;5000371;28;20286;-83
2021/03/05 11:59:41;;;;;;;2.47;2.07;;;8.80;43.10;;;;;;4998640;28;20304;-83
2021/03/05 12:02:07;;;;;;;3.33;3.03;;;8.70;43.30;;;;;;5016491;28;20228;-83
2021/03/05 12:04:33;;;;;;;3.43;2.57;;;8.90;41.50;;;;;;5003513;28;20228;-83
2021/03/05 12:06:58;;;;;;;5.03;3.13;;;9.50;40.90;;;;;;5004083;28;20199;-83
2021/03/05 12:09:24;;;;;;;4.67;2.90;;;9.60;41.50;;;;;;5002417;28;20223;-83
2021/03/05 12:11:50;;;;;;;3.30;1.77;;;10.10;39.60;;;;;;5024810;28;20219;-83
2021/03/05 12:14:15;;;;;;;3.23;2.80;;;9.70;38.00;;;;;;5023849;28;20706;-83
2021/03/05 12:16:41;;;;;;;4.17;2.73;;;9.60;40.80;;;;;;5031508;28;20231;-83
2021/03/05 12:19:07;;;;;;;4.10;2.87;;;10.20;38.60;;;;;;5040031;28;20242;-83
2021/03/05 12:21:32;;;;;;;4.67;2.80;;;10.70;39.00;;;;;;5042052;28;20255;-83
2021/03/05 12:23:58;;;;;;;4.53;2.60;;;11.20;36.50;;;;;;5035266;28;20216;-83
2021/03/05 12:26:24;;;;;;;3.07;2.73;;;11.20;35.50;;;;;;5025011;28;20219;-83
2021/03/05 12:28:50;;;;;;;2.83;2.40;;;11.00;35.80;;;;;;5026441;28;20230;-83
2021/03/05 12:31:15;;;;;;;4.40;2.97;;;11.60;36.20;;;;;;5026121;28;20192;-83
2021/03/05 12:33:43;;;;;;;4.10;2.73;;;11.90;34.60;;;;;;5025772;28;20192;-83
2021/03/05 12:36:10;;;;;;;3.20;2.70;;;11.40;36.60;;;;;;5025227;28;20232;-83
2021/03/05 12:38:36;;;;;;;3.13;2.37;;;11.80;34.00;;;;;;5026834;28;20315;-83
2021/03/05 12:41:02;;;;;;;3.03;2.73;;;12.60;34.10;;;;;;5032862;28;20262;-83
2021/03/05 12:43:28;;;;;;;4.27;3.00;;;11.80;33.90;;;;;;5034063;28;20219;-83
2021/03/05 12:45:53;;;;;;;2.40;2.13;;;12.00;34.00;;;;;;5027562;28;20186;-83
2021/03/05 12:48:19;;;;;;;3.93;2.57;;;11.40;33.00;;;;;;5023239;28;20220;-82
2021/03/05 12:50:45;;;;;;;2.70;1.97;;;10.20;34.80;;;;;;5025218;28;20226;-82
2021/03/05 12:53:10;;;;;;;4.07;2.80;;;9.20;38.00;;;;;;5028699;28;20199;-81
2021/03/05 12:55:36;;;;;;;2.90;2.60;;;10.70;40.20;;;;;;5033942;28;20668;-81
2021/03/05 12:58:03;;;;;;;3.53;2.20;;;8.60;40.90;;;;;;5024690;28;20240;-82
2021/03/05 13:00:29;;;;;;;3.87;2.80;;;8.50;42.20;;;;;;5024118;28;20256;-82
2021/03/05 13:02:54;;;;;;;2.70;2.40;;;8.40;42.60;;;;;;5020810;28;20267;-83
2021/03/05 13:05:20;;;;;;;3.33;2.40;;;8.50;42.80;;;;;;5020693;28;20189;-82
2021/03/05 13:07:46;;;;;;;3.97;2.20;;;8.40;43.30;;;;;;5023094;28;20273;-82
2021/03/05 13:10:12;;;;;;;3.13;1.90;;;7.90;44.60;;;;;;5025056;28;20202;-82